Time;durP1;ratioP1;P1;durP2;ratioP2;P2;SDS_P1;SDS_P2;PMS_P1;PMS_P2;Temp;Humidity;BMP_temperature;BMP_pressure;BME280_temperature;BME280_humidity;BME280_pressure;Samples;Min_cycle;Max_cycle;Signal;HPM_P1;HPM_P2
2022/11/25 00:01:52;;;;;;;5.93;3.83;;;;;;;7.76;100.00;139561.69;5074943;28;20675;-61
2022/11/25 00:04:19;;;;;;;3.20;3.10;;;;;;;7.76;100.00;137922.28;5074542;28;20182;-61
2022/11/25 00:06:46;;;;;;;3.40;3.30;;;;;;;7.74;100.00;136741.72;5074930;28;20239;-61
2022/11/25 00:09:13;;;;;;;3.27;3.07;;;;;;;7.69;100.00;130948.25;5074411;28;20200;-61
2022/11/25 00:11:42;;;;;;;3.60;3.40;;;;;;;7.68;100.00;131663.91;5074628;28;20242;-60
2022/11/25 00:14:13;;;;;;;3.73;3.63;;;;;;;7.63;100.00;121172.38;5074366;28;20185;-60
2022/11/25 00:16:42;;;;;;;3.70;3.57;;;;;;;7.68;100.00;118216.72;5074226;28;20217;-61
2022/11/25 00:19:10;;;;;;;3.00;2.90;;;;;;;7.64;100.00;118538.91;5074589;28;20181;-61
2022/11/25 00:21:37;;;;;;;3.40;3.30;;;;;;;7.59;100.00;121163.06;5072799;28;20281;-61
2022/11/25 00:24:06;;;;;;;4.17;3.93;;;;;;;7.54;100.00;122470.97;5074729;28;20644;-61
2022/11/25 00:26:35;;;;;;;3.67;3.57;;;;;;;7.66;100.00;120519.47;5074133;28;20231;-61
2022/11/25 00:29:04;;;;;;;3.73;3.43;;;;;;;7.63;100.00;118206.63;5074316;28;20262;-60
2022/11/25 00:31:34;;;;;;;3.30;3.20;;;;;;;7.60;100.00;115568.47;5074148;28;20185;-61
2022/11/25 00:34:01;;;;;;;3.70;3.50;;;;;;;7.45;100.00;110936.94;5073985;28;20228;-60
2022/11/25 00:36:30;;;;;;;3.60;3.50;;;;;;;7.26;100.00;106634.44;5074358;28;20203;-61
2022/11/25 00:38:58;;;;;;;3.53;3.43;;;;;;;7.43;100.00;98472.91;5074196;28;20638;-61
2022/11/25 00:47:01;;;;;;;3.33;3.23;;;;;;;7.35;100.00;90287.31;5074293;28;20585;-61
2022/11/25 00:49:28;;;;;;;3.47;3.17;;;;;;;7.38;100.00;89639.00;5073596;28;20312;-61
2022/11/25 00:51:55;;;;;;;3.90;3.70;;;;;;;7.05;100.00;86979.09;5073611;28;20188;-61
2022/11/25 00:54:22;;;;;;;3.33;3.13;;;;;;;7.25;100.00;81795.38;5074067;28;20305;-60
2022/11/25 00:56:49;;;;;;;3.93;3.83;;;;;;;7.25;100.00;79190.50;5073883;28;20268;-61
2022/11/25 00:59:16;;;;;;;3.80;3.70;;;;;;;7.01;100.00;80134.47;5073651;28;20234;-61
2022/11/25 01:01:43;;;;;;;4.00;3.80;;;;;;;7.11;100.00;75269.81;5073543;28;20249;-60
2022/11/25 01:04:12;;;;;;;3.90;3.70;;;;;;;6.95;100.00;73300.44;5073449;28;20216;-61
2022/11/25 01:06:40;;;;;;;3.50;3.40;;;;;;;7.02;100.00;68766.81;5073664;28;20608;-62
2022/11/25 01:09:08;;;;;;;4.77;4.57;;;;;;;7.05;100.00;67472.81;5073608;28;20706;-61
2022/11/25 01:11:35;;;;;;;3.80;3.60;;;;;;;6.94;100.00;64544.16;5073325;28;20660;-61
2022/11/25 01:14:02;;;;;;;3.50;3.40;;;;;;;6.98;100.00;64872.50;5073229;28;20239;-61
2022/11/25 01:16:30;;;;;;;3.80;3.70;;;;;;;7.01;100.00;63257.22;5073466;28;20631;-61
2022/11/25 01:18:58;;;;;;;4.50;4.30;;;;;;;6.95;100.00;60984.78;5072965;28;20234;-61
2022/11/25 01:21:28;;;;;;;4.00;3.70;;;;;;;6.99;100.00;59048.38;5073431;28;20674;-60
2022/11/25 01:23:56;;;;;;;3.90;3.70;;;;;;;6.97;100.00;58400.22;5073363;28;20254;-61
2022/11/25 01:26:24;;;;;;;4.43;4.23;;;;;;;7.02;100.00;58082.00;5073181;28;20224;-61
2022/11/25 01:28:55;;;;;;;4.40;4.20;;;;;;;7.00;100.00;57756.72;5072814;28;20243;-60
2022/11/25 01:31:24;;;;;;;4.70;4.40;;;;;;;6.99;100.00;56785.69;5073101;28;20185;-62
2022/11/25 01:33:55;;;;;;;4.00;3.90;;;;;;;7.12;100.00;58415.44;5072572;28;20276;-61
2022/11/25 01:36:22;;;;;;;4.33;4.13;;;;;;;7.19;100.00;61334.34;5073167;28;20540;-61
2022/11/25 01:38:53;;;;;;;4.20;4.00;;;;;;;7.21;100.00;64574.84;5072929;28;20688;-60
2022/11/25 01:41:20;;;;;;;4.50;4.30;;;;;;;7.26;100.00;66848.75;5072930;28;20632;-61
2022/11/25 01:44:08;;;;;;;4.23;4.03;;;;;;;7.26;100.00;67497.28;5073022;28;20667;-61
2022/11/25 01:46:45;;;;;;;4.67;4.23;;;;;;;6.95;100.00;65193.03;5072687;28;20219;-61
2022/11/25 01:49:17;;;;;;;4.73;4.53;;;;;;;7.19;100.00;60362.94;5072458;28;20390;-61
2022/11/25 01:51:49;;;;;;;4.80;4.60;;;;;;;7.05;100.00;57438.00;5072739;28;20264;-61
2022/11/25 01:54:21;;;;;;;4.50;4.30;;;;;;;7.08;100.00;51950.78;5072580;28;20193;-61
2022/11/25 01:56:57;;;;;;;4.57;4.37;;;;;;;7.05;100.00;48722.53;5072687;28;20648;-60
2022/11/25 01:59:24;;;;;;;4.20;4.00;;;;;;;6.99;100.00;48072.75;5072656;28;20625;-60
2022/11/25 02:01:52;;;;;;;4.47;4.07;;;;;;;6.89;100.00;46131.78;5072590;28;20680;-61
2022/11/25 02:04:23;;;;;;;4.20;4.00;;;;;;;6.95;100.00;45170.06;5072275;28;20250;-61
2022/11/25 02:06:54;;;;;;;4.47;4.27;;;;;;;6.94;100.00;43559.66;5072416;28;20592;-60
2022/11/25 02:09:23;;;;;;;4.17;3.97;;;;;;;7.02;100.00;43887.31;5072613;28;20205;-60
2022/11/25 02:11:52;;;;;;;3.73;3.63;;;;;;;6.97;100.00;43883.44;5071975;28;20280;-61
2022/11/25 02:14:21;;;;;;;4.70;4.40;;;;;;;6.93;100.00;42914.88;5072350;28;20640;-62
2022/11/25 02:16:48;;;;;;;4.20;4.00;;;;;;;6.95;100.00;41307.84;5072209;28;20216;-61
2022/11/25 02:19:22;;;;;;;4.30;4.10;;;;;;;6.82;100.00;41942.28;5071928;28;20189;-61
2022/11/25 02:21:54;;;;;;;4.13;3.93;;;;;;;6.78;100.00;40974.63;5072264;28;20283;-61
2022/11/25 02:24:30;;;;;;;4.40;4.20;;;;;;;7.09;100.00;42283.34;5072164;28;20180;-60
2022/11/25 02:26:58;;;;;;;4.60;4.40;;;;;;;6.94;100.00;44846.91;5071909;28;20193;-61
2022/11/25 02:29:26;;;;;;;4.50;4.20;;;;;;;6.80;100.00;46768.16;5071757;28;20201;-60
2022/11/25 02:31:53;;;;;;;4.63;4.43;;;;;;;7.15;100.00;48408.22;5072073;28;20752;-61
2022/11/25 02:34:20;;;;;;;4.47;4.27;;;;;;;7.19;100.00;46477.53;5072116;28;20271;-61
2022/11/25 02:36:47;;;;;;;3.87;3.67;;;;;;;7.10;100.00;46792.81;5071705;28;20189;-61
2022/11/25 02:39:14;;;;;;;4.27;4.03;;;;;;;7.22;100.00;45191.13;5071784;28;20231;-61
2022/11/25 02:41:44;;;;;;;4.27;4.07;;;;;;;7.00;100.00;43886.16;5071639;28;20181;-60
2022/11/25 02:44:12;;;;;;;4.10;3.90;;;;;;;7.20;100.00;43257.28;5071628;28;20275;-61
2022/11/25 02:46:40;;;;;;;12.03;4.30;;;;;;;7.22;100.00;45513.28;5071331;28;20200;-60
2022/11/25 02:49:07;;;;;;;4.47;4.27;;;;;;;7.22;100.00;45835.47;5071333;28;20240;-61
2022/11/25 02:51:34;;;;;;;4.67;4.37;;;;;;;7.33;100.00;48100.97;5071935;28;20291;-61
2022/11/25 02:54:01;;;;;;;4.80;4.17;;;;;;;7.21;100.00;53253.97;5071863;28;20571;-61
2022/11/25 02:56:30;;;;;;;4.70;4.50;;;;;;;7.45;100.00;56831.13;5071564;28;20181;-61
2022/11/25 02:58:57;;;;;;;4.47;4.27;;;;;;;7.49;100.00;58128.94;5071853;28;20586;-61
2022/11/25 03:01:26;;;;;;;4.20;3.97;;;;;;;7.50;100.00;60719.19;5071795;28;20555;-61
2022/11/25 03:03:53;;;;;;;4.50;4.30;;;;;;;7.49;100.00;61365.19;5071469;28;20242;-61
2022/11/25 03:06:20;;;;;;;4.63;4.40;;;;;;;7.34;100.00;59084.28;5071751;28;20219;-61
2022/11/25 03:08:47;;;;;;;4.03;3.87;;;;;;;7.58;100.00;62346.53;5071635;28;20216;-61
2022/11/25 03:11:14;;;;;;;4.93;4.53;;;;;;;7.54;100.00;61694.91;5071834;28;20645;-61
2022/11/25 03:13:41;;;;;;;4.37;4.07;;;;;;;7.51;100.00;60720.22;5071622;28;20228;-61
2022/11/25 03:16:08;;;;;;;4.47;4.27;;;;;;;7.49;100.00;60718.13;5071284;28;20225;-61
2022/11/25 03:18:37;;;;;;;4.20;4.00;;;;;;;7.47;100.00;59421.22;5071199;28;20226;-62
2022/11/25 03:21:04;;;;;;;4.37;4.17;;;;;;;7.39;100.00;55855.28;5071613;28;20715;-61
2022/11/25 03:23:34;;;;;;;4.37;3.97;;;;;;;7.51;100.00;56513.66;5071243;28;20228;-61
2022/11/25 03:26:05;;;;;;;4.33;4.13;;;;;;;7.05;100.00;53884.38;5071194;28;20227;-61
2022/11/25 03:28:32;;;;;;;4.20;4.00;;;;;;;7.45;100.00;55214.63;5071357;28;20192;-61
2022/11/25 03:30:59;;;;;;;4.13;3.93;;;;;;;7.43;100.00;53920.06;5071133;28;20231;-61
2022/11/25 03:33:26;;;;;;;4.40;4.20;;;;;;;7.42;100.00;53272.56;5071233;28;20228;-61
2022/11/25 03:35:55;;;;;;;4.20;4.00;;;;;;;7.39;100.00;55208.84;5071067;28;20184;-61
2022/11/25 03:38:22;;;;;;;4.60;4.40;;;;;;;7.39;100.00;55208.84;5071462;28;20238;-60
2022/11/25 03:40:49;;;;;;;4.40;4.20;;;;;;;7.26;100.00;54227.09;5071086;28;20250;-61
2022/11/25 03:43:16;;;;;;;4.07;3.87;;;;;;;7.38;100.00;53914.91;5071189;28;20234;-60
2022/11/25 03:45:43;;;;;;;4.70;4.50;;;;;;;7.38;100.00;54238.00;5071670;28;20185;-61
2022/11/25 03:48:10;;;;;;;4.50;4.10;;;;;;;7.31;100.00;52617.41;5071295;28;20622;-59
2022/11/25 03:50:37;;;;;;;5.00;4.70;;;;;;;7.37;100.00;53268.38;5071188;28;20280;-60
2022/11/25 03:53:05;;;;;;;4.57;4.37;;;;;;;7.31;100.00;55848.00;5071350;28;20659;-61
2022/11/25 03:55:32;;;;;;;4.60;4.40;;;;;;;7.15;100.00;55831.97;5071419;28;20239;-61
2022/11/25 03:57:59;;;;;;;4.23;4.03;;;;;;;7.11;100.00;54859.38;5075173;28;20596;-61
2022/11/25 04:00:26;;;;;;;4.20;4.00;;;;;;;7.14;100.00;52601.31;5074745;28;20220;-61
2022/11/25 04:02:52;;;;;;;4.73;4.43;;;;;;;7.15;100.00;51311.22;5074955;28;20626;-60
2022/11/25 04:05:19;;;;;;;5.53;5.23;;;;;;;7.15;100.00;51633.94;5074649;28;20189;-60
2022/11/25 04:07:47;;;;;;;4.60;4.40;;;;;;;7.12;100.00;47438.59;5074570;28;20235;-60
2022/11/25 04:10:15;;;;;;;4.40;4.20;;;;;;;7.13;100.00;43251.94;5074370;28;20262;-60
2022/11/25 04:12:48;;;;;;;4.90;4.60;;;;;;;7.16;100.00;42288.94;5074475;28;20231;-60
2022/11/25 04:15:16;;;;;;;5.87;5.20;;;;;;;7.21;100.00;41326.84;5074814;28;20709;-61
2022/11/25 04:17:43;;;;;;;5.10;4.70;;;;;;;7.08;100.00;41961.19;5074431;28;20276;-61
2022/11/25 04:20:12;;;;;;;4.70;4.40;;;;;;;7.37;100.00;41016.69;5074737;28;20242;-60
2022/11/25 04:22:39;;;;;;;4.67;4.47;;;;;;;7.30;100.00;42620.94;5074645;28;20553;-60
2022/11/25 04:25:06;;;;;;;4.80;4.60;;;;;;;7.48;100.00;45533.69;5074339;28;20189;-61
2022/11/25 04:27:35;;;;;;;4.63;4.23;;;;;;;7.53;100.00;46504.88;5074658;28;20184;-60
2022/11/25 04:30:01;;;;;;;4.70;4.50;;;;;;;7.57;100.00;46830.59;5074322;28;20204;-61
2022/11/25 04:32:28;;;;;;;4.70;4.50;;;;;;;7.64;100.00;48449.34;5075025;28;20573;-60
2022/11/25 04:34:55;;;;;;;4.60;4.40;;;;;;;7.52;100.00;49730.31;5074885;28;20224;-61
2022/11/25 04:37:22;;;;;;;4.57;4.37;;;;;;;7.78;100.00;53629.69;5074288;28;20185;-60
2022/11/25 04:39:49;;;;;;;4.87;4.67;;;;;;;7.77;100.00;54921.50;5074015;28;20185;-61
2022/11/25 04:42:31;;;;;;;4.40;4.20;;;;;;;7.84;100.00;56545.13;5073895;28;20224;-61
2022/11/25 04:45:01;;;;;;;4.47;4.27;;;;;;;7.84;100.00;56221.56;5074292;28;20647;-61
2022/11/25 04:47:29;;;;;;;5.03;4.50;;;;;;;7.84;100.00;55898.56;5073761;28;20250;-61
2022/11/25 04:49:56;;;;;;;4.40;4.13;;;;;;;7.78;100.00;55246.34;5073622;28;20579;-62
2022/11/25 04:52:23;;;;;;;4.80;4.47;;;;;;;7.77;100.00;52982.34;5074324;28;20220;-61
2022/11/25 04:54:50;;;;;;;4.43;4.23;;;;;;;7.67;100.00;49097.78;5074213;28;20224;-61
2022/11/25 04:57:17;;;;;;;4.93;4.63;;;;;;;7.60;100.00;43609.59;5073812;28;20189;-61
2022/11/25 04:59:43;;;;;;;4.77;4.57;;;;;;;7.60;100.00;41677.34;5073481;28;20663;-61
2022/11/25 05:02:16;;;;;;;5.20;4.87;;;;;;;7.57;100.00;41031.22;5073916;28;20189;-60
2022/11/25 05:04:45;;;;;;;4.93;4.73;;;;;;;7.55;100.00;38777.06;5073390;28;20276;-60
2022/11/25 05:07:13;;;;;;;4.73;4.53;;;;;;;7.53;100.00;37167.59;5073044;28;20231;-60
2022/11/25 05:09:40;;;;;;;5.30;5.10;;;;;;;7.51;100.00;34595.00;5072960;28;20224;-62
2022/11/25 05:12:08;;;;;;;6.30;5.00;;;;;;;7.46;100.00;34591.91;5073775;28;20247;-61
2022/11/25 05:14:35;;;;;;;5.40;5.10;;;;;;;7.50;100.00;34594.38;5073489;28;20655;-60
2022/11/25 05:17:02;;;;;;;5.93;5.43;;;;;;;7.53;100.00;33311.28;5073262;28;20276;-62
2022/11/25 05:19:30;;;;;;;6.10;5.70;;;;;;;7.48;100.00;33308.31;5073111;28;20231;-60
2022/11/25 05:21:58;;;;;;;5.73;5.40;;;;;;;7.49;100.00;35236.38;5073396;28;20268;-60
2022/11/25 05:24:25;;;;;;;5.97;5.67;;;;;;;7.69;100.00;34927.53;5073158;28;20224;-61
2022/11/25 05:26:52;;;;;;;6.57;6.17;;;;;;;7.70;100.00;35249.28;5073407;28;20231;-61
2022/11/25 05:29:19;;;;;;;6.23;5.83;;;;;;;7.74;100.00;35573.59;5072953;28;20276;-61
2022/11/25 05:31:46;;;;;;;7.30;6.83;;;;;;;7.80;100.00;36220.53;5072844;28;20296;-61
2022/11/25 05:34:13;;;;;;;14.90;7.10;;;;;;;7.79;100.00;37184.47;5072851;28;20606;-61
2022/11/25 05:36:42;;;;;;;7.20;6.70;;;;;;;7.84;100.00;38796.34;5072850;28;20275;-61
2022/11/25 05:39:09;;;;;;;7.93;7.33;;;;;;;8.00;100.00;38485.78;5072748;28;20280;-61
2022/11/25 05:41:36;;;;;;;7.07;6.67;;;;;;;8.10;100.00;42035.75;5073044;28;20596;-61
2022/11/25 05:44:04;;;;;;;6.97;6.57;;;;;;;8.26;100.00;45595.78;5072817;28;20552;-61
2022/11/25 05:46:31;;;;;;;7.63;7.27;;;;;;;8.34;100.00;50770.50;5072635;28;20195;-62
2022/11/25 05:48:58;;;;;;;8.20;7.60;;;;;;;8.27;100.00;55292.50;5072489;28;20272;-60
2022/11/25 05:51:27;;;;;;;7.93;7.23;;;;;;;8.31;100.00;55295.88;5072785;28;20740;-60
2022/11/25 05:53:55;;;;;;;9.30;8.60;;;;;;;8.37;100.00;56273.41;5072457;28;20200;-62
2022/11/25 05:56:23;;;;;;;9.63;8.63;;;;;;;8.43;100.00;56602.66;5072466;28;20227;-61
2022/11/25 05:58:50;;;;;;;8.80;8.10;;;;;;;8.42;100.00;57249.47;5072633;28;20192;-61
2022/11/25 06:01:17;;;;;;;15.53;8.77;;;;;;;8.57;100.00;57912.47;5072375;28;20207;-60
2022/11/25 06:03:44;;;;;;;17.97;8.97;;;;;;;8.50;100.00;58229.97;5072281;28;20626;-60
2022/11/25 06:06:11;;;;;;;14.47;8.60;;;;;;;8.69;100.00;57600.91;5071288;28;20220;-62
2022/11/25 06:08:39;;;;;;;12.10;8.87;;;;;;;8.67;100.00;62787.81;5072452;28;20276;-61
2022/11/25 06:11:11;;;;;;;15.10;8.17;;;;;;;8.73;100.00;63768.31;5072571;28;20691;-60
2022/11/25 06:13:39;;;;;;;12.47;8.20;;;;;;;8.84;100.00;68004.47;5072340;28;20196;-61
2022/11/25 06:16:10;;;;;;;11.90;8.67;;;;;;;8.84;100.00;68004.47;5072421;28;20351;-62
2022/11/25 06:18:38;;;;;;;8.77;8.17;;;;;;;8.68;100.00;64087.50;5072217;28;20246;-60
2022/11/25 06:21:06;;;;;;;8.90;8.17;;;;;;;8.86;100.00;62807.91;5072251;28;20203;-62
2022/11/25 06:23:34;;;;;;;9.30;8.20;;;;;;;8.97;100.00;64768.88;5071821;28;20188;-61
2022/11/25 06:26:05;;;;;;;9.10;8.23;;;;;;;9.06;100.00;68030.88;5072068;28;20597;-61
2022/11/25 06:28:34;;;;;;;9.33;8.67;;;;;;;9.17;100.00;75208.38;5071819;28;20220;-61
2022/11/25 06:31:06;;;;;;;14.87;9.57;;;;;;;9.30;100.00;78160.66;5071834;28;20251;-61
2022/11/25 06:33:33;;;;;;;11.27;9.60;;;;;;;9.37;100.00;88631.25;5071677;28;20181;-61
2022/11/25 06:36:04;;;;;;;9.40;8.70;;;;;;;9.82;100.00;94601.53;5071536;28;20220;-60
2022/11/25 06:38:32;;;;;;;9.50;8.80;;;;;;;10.13;100.00;124000.78;5071926;28;20189;-62
2022/11/25 06:41:02;;;;;;;10.40;9.50;;;;;;;10.40;100.00;148656.59;5071920;28;20224;-62
2022/11/25 06:43:29;;;;;;;24.87;10.83;;;;;;;10.48;100.00;148676.81;5071974;28;20288;-61
2022/11/25 06:46:04;;;;;;;18.37;10.20;;;;;;;10.63;100.00;148712.22;5071731;28;20181;-61
2022/11/25 06:48:31;;;;;;;10.97;10.10;;;;;;;10.70;100.00;148729.91;5071555;28;20235;-61
2022/11/25 06:50:59;;;;;;;22.27;11.63;;;;;;;10.33;100.00;148637.66;5071712;28;20259;-59
2022/11/25 06:53:27;;;;;;;13.50;10.83;;;;;;;10.47;100.00;148673.06;5071527;28;20184;-62
2022/11/25 06:56:06;;;;;;;11.10;10.03;;;;;;;10.52;100.00;148685.72;5072027;28;20790;-62
2022/11/25 06:58:33;;;;;;;11.40;10.20;;;;;;;10.72;100.00;148735.00;5071563;28;20188;-62
2022/11/25 07:01:07;;;;;;;11.30;10.30;;;;;;;11.37;100.00;148899.34;5071653;28;20624;-60
2022/11/25 07:03:34;;;;;;;17.87;10.50;;;;;;;11.72;100.00;148985.44;5071123;28;20220;-61
2022/11/25 07:06:02;;;;;;;14.97;11.03;;;;;;;12.06;100.00;149070.22;5071327;28;20250;-60
2022/11/25 07:08:29;;;;;;;11.47;10.37;;;;;;;12.71;100.00;149234.78;5071382;28;20185;-61
2022/11/25 07:11:03;;;;;;;12.00;10.73;;;;;;;13.07;100.00;149323.44;5071024;28;20249;-61
2022/11/25 07:13:30;;;;;;;10.10;8.97;;;;;;;13.06;100.00;149320.91;5072620;28;20238;-62
2022/11/25 07:16:02;;;;;;;11.23;9.03;;;;;;;13.48;100.00;149426.09;5071676;28;20192;-61
2022/11/25 07:18:32;;;;;;;9.10;8.47;;;;;;;13.66;100.00;149471.72;5071642;28;20224;-61
2022/11/25 07:21:05;;;;;;;9.10;8.40;;;;;;;13.36;100.00;149395.69;5071004;28;20189;-60
2022/11/25 07:23:36;;;;;;;9.63;8.87;;;;;;;13.15;100.00;149345.00;5071127;28;20192;-62
2022/11/25 07:26:05;;;;;;;11.47;9.50;;;;;;;13.48;100.00;149427.38;5071113;28;20271;-61
2022/11/25 07:28:32;;;;;;;16.43;13.17;;;;;;;14.00;100.00;149557.84;5071383;28;20254;-60
2022/11/25 07:31:05;;;;;;;8.63;7.97;;;;;;;14.97;100.00;149801.38;5071904;28;20240;-61
2022/11/25 07:33:36;;;;;;;9.77;8.53;;;;;;;15.22;100.00;149863.53;5075041;28;20192;-62
2022/11/25 07:36:05;;;;;;;9.50;8.50;;;;;;;15.99;100.00;150056.47;5075379;28;20227;-62
2022/11/25 07:38:34;;;;;;;9.27;8.67;;;;;;;16.49;100.00;150180.88;5074842;28;20181;-60
2022/11/25 07:41:07;;;;;;;13.93;8.40;;;;;;;16.18;100.00;150104.69;5075457;28;20223;-61
2022/11/25 07:43:34;;;;;;;9.50;8.63;;;;;;;15.68;100.00;149979.03;5074875;28;20221;-61
2022/11/25 07:46:12;;;;;;;22.23;9.47;;;;;;;15.40;100.00;149907.94;5074940;28;20294;-61
2022/11/25 07:48:41;;;;;;;9.73;8.97;;;;;;;15.32;100.00;149887.66;5074877;28;20339;-61
2022/11/25 07:51:14;;;;;;;9.90;9.00;;;;;;;15.61;100.00;149961.28;5074756;28;20258;-61
2022/11/25 07:53:42;;;;;;;9.30;8.70;;;;;;;16.11;100.00;150085.66;5074542;28;20242;-60
2022/11/25 07:56:09;;;;;;;13.70;9.23;;;;;;;15.82;100.00;150014.59;5074075;28;20287;-61
2022/11/25 07:58:36;;;;;;;10.07;9.17;;;;;;;15.07;100.00;149826.72;5074887;28;20648;-62
2022/11/25 08:01:06;;;;;;;9.77;8.83;;;;;;;15.15;100.00;149844.50;5074504;28;20238;-61
2022/11/25 08:03:34;;;;;;;8.87;8.37;;;;;;;15.16;100.00;149848.28;5074651;28;20188;-61
2022/11/25 08:06:03;;;;;;;10.43;9.40;;;;;;;15.14;100.00;149841.97;5074791;28;20571;-62
2022/11/25 08:08:31;;;;;;;9.60;8.80;;;;;;;15.44;100.00;149918.09;5074803;28;20562;-61
2022/11/25 08:10:58;;;;;;;9.03;8.33;;;;;;;16.08;100.00;150078.06;5074257;28;20220;-61
2022/11/25 08:13:25;;;;;;;8.43;8.00;;;;;;;15.60;100.00;149958.72;5074453;28;20238;-61
2022/11/25 08:15:52;;;;;;;10.37;7.67;;;;;;;15.62;100.00;149963.78;5074426;28;20196;-61
2022/11/25 08:18:19;;;;;;;8.43;7.90;;;;;;;15.00;100.00;149808.97;5074264;28;20223;-61
2022/11/25 08:20:46;;;;;;;9.10;8.50;;;;;;;14.30;100.00;149631.41;5074880;28;20559;-62
2022/11/25 08:23:14;;;;;;;10.07;9.27;;;;;;;14.07;100.00;149574.34;5074770;28;20680;-61
2022/11/25 08:25:42;;;;;;;9.00;8.40;;;;;;;13.93;100.00;149540.13;5074103;28;20181;-62
2022/11/25 08:28:10;;;;;;;10.17;9.57;;;;;;;13.33;100.00;149388.06;5074549;28;20699;-62
2022/11/25 08:30:37;;;;;;;9.83;9.17;;;;;;;12.69;100.00;149228.44;5074962;28;20654;-62
2022/11/25 08:33:07;;;;;;;10.57;9.80;;;;;;;12.02;100.00;149061.34;5074342;28;20691;-61
2022/11/25 08:35:36;;;;;;;20.30;10.10;;;;;;;11.86;100.00;149020.88;5073920;28;20243;-61
2022/11/25 08:38:04;;;;;;;10.37;9.53;;;;;;;11.59;100.00;148953.75;5074030;28;20250;-61
2022/11/25 08:40:37;;;;;;;11.60;10.73;;;;;;;11.69;100.00;148977.81;5074095;28;20191;-62
2022/11/25 08:43:04;;;;;;;11.63;10.50;;;;;;;11.69;100.00;148977.81;5072749;28;20177;-62
2022/11/25 08:45:31;;;;;;;10.47;9.57;;;;;;;12.65;100.00;149219.59;5074236;28;20635;-62
2022/11/25 08:47:58;;;;;;;10.70;9.67;;;;;;;12.70;100.00;149230.97;5073987;28;20602;-62
2022/11/25 08:50:25;;;;;;;9.67;9.03;;;;;;;12.34;100.00;149141.13;5091169;28;20765;-61
2022/11/25 08:52:54;;;;;;;10.50;9.80;;;;;;;12.16;100.00;149095.53;5093589;28;20257;-61
2022/11/25 08:55:21;;;;;;;10.07;9.30;;;;;;;11.84;100.00;149015.78;5094272;28;20235;-61
2022/11/25 08:57:49;;;;;;;11.03;10.13;;;;;;;11.78;100.00;149000.63;5094148;28;20184;-61
2022/11/25 09:00:17;;;;;;;15.07;11.37;;;;;;;11.44;100.00;148917.09;5094539;28;20626;-61
2022/11/25 09:02:44;;;;;;;11.73;11.00;;;;;;;11.12;100.00;148836.13;5094120;28;20207;-61
2022/11/25 09:05:12;;;;;;;11.93;11.07;;;;;;;10.97;100.00;148798.22;5093034;28;20206;-62
2022/11/25 09:07:44;;;;;;;14.90;11.87;;;;;;;10.82;100.00;148761.53;5093610;28;20231;-61
2022/11/25 09:10:16;;;;;;;12.67;11.77;;;;;;;10.55;100.00;148693.28;5093517;28;20311;-62
2022/11/25 09:12:44;;;;;;;15.23;12.27;;;;;;;10.48;100.00;148675.59;5093642;28;20208;-61
2022/11/25 09:15:12;;;;;;;12.90;11.80;;;;;;;10.33;100.00;148638.94;5093634;28;20297;-62
2022/11/25 09:17:39;;;;;;;24.63;12.60;;;;;;;10.40;100.00;148656.59;5093345;28;20188;-61
2022/11/25 09:20:07;;;;;;;19.00;11.93;;;;;;;10.53;100.00;148688.19;5092132;28;20223;-62
2022/11/25 09:22:35;;;;;;;12.90;11.43;;;;;;;10.44;100.00;148665.44;5093160;28;20184;-62
2022/11/25 09:25:02;;;;;;;11.53;10.53;;;;;;;10.42;100.00;148661.69;5093248;28;20184;-62
2022/11/25 09:27:30;;;;;;;11.37;10.43;;;;;;;10.38;100.00;148651.56;5093136;28;20204;-61
2022/11/25 09:30:00;;;;;;;81.87;19.77;;;;;;;10.29;100.00;148628.81;5093074;28;20246;-61
2022/11/25 09:32:29;;;;;;;12.43;10.73;;;;;;;10.53;100.00;148688.19;5093288;28;20686;-62
2022/11/25 09:34:56;;;;;;;9.60;9.00;;;;;;;10.51;100.00;148684.44;5093553;28;20191;-62
2022/11/25 09:37:25;;;;;;;10.53;9.83;;;;;;;10.26;100.00;148619.97;5092926;28;20253;-62
2022/11/25 09:39:54;;;;;;;9.23;8.63;;;;;;;10.73;100.00;148737.53;5093449;28;20666;-62
2022/11/25 09:48:29;;;;;;;10.80;10.07;;;;;;;10.51;100.00;148684.44;5092785;28;20192;-61
2022/11/25 09:51:09;;;;;;;11.37;10.57;;;;;;;10.43;100.00;148664.22;5092949;28;20190;-61
2022/11/25 09:53:44;;;;;;;18.50;14.87;;;;;;;10.49;100.00;148679.38;5092547;28;20184;-60
2022/11/25 09:56:19;;;;;;;12.57;11.47;;;;;;;10.56;100.00;148694.56;5091828;28;20196;-61
2022/11/25 09:58:52;;;;;;;15.77;14.33;;;;;;;10.56;100.00;148695.81;5092933;28;20184;-61
2022/11/25 10:01:23;;;;;;;13.30;12.10;;;;;;;10.63;100.00;148713.50;5092601;28;20187;-62
2022/11/25 10:03:56;;;;;;;13.07;11.87;;;;;;;10.63;100.00;148712.22;5093085;28;20237;-62
2022/11/25 10:06:26;;;;;;;13.90;12.47;;;;;;;10.67;100.00;148722.34;5092456;28;20184;-62
2022/11/25 10:08:58;;;;;;;176.83;131.60;;;;;;;10.68;100.00;148724.88;5092650;28;20191;-62
2022/11/25 10:11:35;;;;;;;11.13;10.33;;;;;;;10.70;100.00;148731.19;5092865;28;20211;-61
2022/11/25 10:14:08;;;;;;;585.77;431.40;;;;;;;10.64;100.00;148716.03;5092638;28;20342;-61
2022/11/25 10:16:45;;;;;;;14.53;13.07;;;;;;;10.69;100.00;148727.44;5092876;28;20184;-62
2022/11/25 10:19:24;;;;;;;11.70;10.80;;;;;;;10.47;100.00;148673.06;5092512;28;20267;-61
2022/11/25 10:21:52;;;;;;;12.33;11.23;;;;;;;10.36;100.00;148646.50;5092488;28;20176;-61
2022/11/25 10:24:20;;;;;;;15.03;12.47;;;;;;;10.29;100.00;148628.81;5092288;28;20196;-61
2022/11/25 10:26:54;;;;;;;23.03;18.67;;;;;;;10.14;100.00;148589.63;5091753;28;20649;-62
2022/11/25 10:29:27;;;;;;;17.43;13.40;;;;;;;10.11;100.00;148583.25;5092443;28;20671;-62
2022/11/25 10:32:04;;;;;;;12.07;11.13;;;;;;;9.99;100.00;148552.94;5092186;28;20259;-61
2022/11/25 10:34:39;;;;;;;119.60;81.73;;;;;;;9.90;100.00;148530.19;5092051;28;20222;-61
2022/11/25 10:37:12;;;;;;;16.30;14.60;;;;;;;10.14;100.00;148590.88;5092346;28;20221;-62
2022/11/25 10:39:40;;;;;;;52.70;36.50;;;;;;;10.19;100.00;148603.53;5092627;28;20630;-62
2022/11/25 10:42:16;;;;;;;20.57;14.03;;;;;;;10.20;100.00;148604.78;5092280;28;20180;-62
2022/11/25 10:44:43;;;;;;;14.20;12.23;;;;;;;10.35;100.00;148644.00;5092339;28;20184;-61
2022/11/25 10:47:24;;;;;;;18.70;15.83;;;;;;;10.41;100.00;148657.88;5092029;28;20184;-61
2022/11/25 10:50:08;;;;;;;100.03;73.87;;;;;;;10.32;100.00;148636.38;5092021;28;20315;-63
2022/11/25 10:52:40;;;;;;;26.67;11.37;;;;;;;10.60;100.00;148704.66;5091640;28;20203;-63
2022/11/25 10:55:13;;;;;;;102.87;19.27;;;;;;;10.52;100.00;148685.72;5090943;28;20302;-61
2022/11/25 10:57:41;;;;;;;12.30;8.47;;;;;;;10.67;100.00;148722.34;5092360;28;20213;-61
2022/11/25 11:00:26;;;;;;;21.17;9.07;;;;;;;10.93;100.00;148788.09;5092036;28;20572;-61
2022/11/25 11:02:54;;;;;;;10.03;8.07;;;;;;;10.84;100.00;148765.31;5091721;28;20180;-61
2022/11/25 11:05:28;;;;;;;8.60;7.97;;;;;;;10.93;100.00;148788.09;5091713;28;20184;-61
2022/11/25 11:08:15;;;;;;;7.43;7.03;;;;;;;11.04;100.00;148815.91;5090654;28;20199;-62
2022/11/25 11:10:42;;;;;;;8.73;8.23;;;;;;;11.13;100.00;148838.66;5091640;28;20262;-62
2022/11/25 11:13:23;;;;;;;19.90;16.40;;;;;;;11.39;100.00;148903.16;5091551;28;20239;-61
2022/11/25 11:15:51;;;;;;;6.83;6.43;;;;;;;11.25;100.00;148869.00;5085478;28;20304;-61
2022/11/25 11:18:25;;;;;;;6.77;6.27;;;;;;;11.15;100.00;148842.47;5077822;28;20245;-61
2022/11/25 11:20:55;;;;;;;7.07;6.47;;;;;;;11.02;100.00;148810.88;5071589;28;20323;-61
2022/11/25 11:23:23;;;;;;;7.03;6.37;;;;;;;11.10;100.00;148831.09;5075556;28;20231;-61
2022/11/25 11:25:59;;;;;;;8.07;7.53;;;;;;;11.08;100.00;148826.00;5090960;28;20678;-61
2022/11/25 11:28:39;;;;;;;7.93;7.20;;;;;;;11.20;100.00;148855.13;5080998;28;20252;-61
2022/11/25 11:31:16;;;;;;;8.33;7.03;;;;;;;11.41;100.00;148908.25;5091866;28;20293;-61
2022/11/25 11:33:54;;;;;;;7.37;6.87;;;;;;;11.52;100.00;148934.78;5092002;28;20210;-62
2022/11/25 11:36:42;;;;;;;7.90;7.17;;;;;;;11.24;100.00;148865.25;5084316;28;20296;-62
2022/11/25 11:39:37;;;;;;;7.90;7.33;;;;;;;11.13;100.00;148837.38;5091698;28;20192;-61
2022/11/25 11:42:12;;;;;;;18.80;9.40;;;;;;;10.85;100.00;148769.13;5091368;28;20184;-62
2022/11/25 11:44:58;;;;;;;9.07;8.47;;;;;;;10.70;100.00;148731.19;5091465;28;20221;-62